Time;durP1;ratioP1;P1;durP2;ratioP2;P2;SDS_P1;SDS_P2;PMS_P1;PMS_P2;Temp;Humidity;BMP_temperature;BMP_pressure;BME280_temperature;BME280_humidity;BME280_pressure;Samples;Min_cycle;Max_cycle;Signal;HPM_P1;HPM_P2
2022/08/24 00:01:09;;;;;;;11.07;9.68;;;19.90;99.90;;;;;;4998086;28;20045;-78
2022/08/24 00:03:37;;;;;;;12.88;9.15;;;19.90;99.90;;;;;;4987793;28;20061;-79
2022/08/24 00:06:05;;;;;;;10.70;9.63;;;19.90;99.90;;;;;;5000017;28;20042;-78
2022/08/24 00:08:31;;;;;;;10.60;9.50;;;19.90;99.90;;;;;;5003394;28;20487;-78
2022/08/24 00:10:58;;;;;;;11.98;10.35;;;19.90;99.90;;;;;;5001886;28;20096;-77
2022/08/24 00:13:24;;;;;;;11.13;10.02;;;19.90;99.90;;;;;;5005153;28;20049;-78
2022/08/24 00:15:50;;;;;;;12.07;10.98;;;19.90;99.90;;;;;;4989281;28;20048;-78
2022/08/24 00:18:16;;;;;;;10.27;9.25;;;19.80;99.90;;;;;;4991407;28;20094;-78
2022/08/24 00:20:42;;;;;;;11.05;10.02;;;19.80;99.90;;;;;;4988157;28;20050;-78
2022/08/24 00:23:08;;;;;;;11.85;10.73;;;19.80;99.90;;;;;;4991663;28;20061;-78
2022/08/24 00:25:34;;;;;;;10.45;9.35;;;19.80;99.90;;;;;;4988887;28;20038;-78
2022/08/24 00:28:00;;;;;;;10.52;9.52;;;19.80;99.90;;;;;;5006533;28;20530;-78
2022/08/24 00:30:26;;;;;;;11.93;9.88;;;19.80;99.90;;;;;;4971319;28;20081;-77
2022/08/24 00:32:53;;;;;;;10.05;9.05;;;19.70;99.90;;;;;;5008448;28;20041;-77
2022/08/24 00:35:20;;;;;;;10.95;9.60;;;19.70;99.90;;;;;;5012499;28;20107;-78
2022/08/24 00:37:48;;;;;;;13.25;9.50;;;19.70;99.90;;;;;;5030734;28;20021;-76
2022/08/24 00:40:19;;;;;;;11.38;10.07;;;19.70;99.90;;;;;;4993857;28;20045;-77
2022/08/24 00:42:44;;;;;;;10.90;9.80;;;19.70;99.90;;;;;;4982373;28;20053;-77
2022/08/24 00:45:12;;;;;;;10.65;9.52;;;19.70;99.90;;;;;;5021869;28;20045;-77
2022/08/24 00:48:03;;;;;;;10.73;9.57;;;19.70;99.90;;;;;;4990055;28;20495;-77
2022/08/24 00:50:39;;;;;;;10.60;9.57;;;19.60;99.90;;;;;;5010046;28;20414;-77
2022/08/24 00:53:10;;;;;;;11.00;9.90;;;19.60;99.90;;;;;;5028056;28;20053;-77
2022/08/24 00:55:40;;;;;;;14.30;10.90;;;19.60;99.90;;;;;;5013325;28;20041;-77
2022/08/24 00:58:17;;;;;;;11.85;10.65;;;19.60;99.90;;;;;;4990124;28;20056;-77
2022/08/24 01:00:48;;;;;;;15.57;11.45;;;19.50;99.90;;;;;;4983665;28;20096;-77
2022/08/24 01:03:14;;;;;;;12.55;11.25;;;19.40;99.90;;;;;;5004619;28;20048;-77
2022/08/24 01:05:40;;;;;;;12.45;11.15;;;19.40;99.90;;;;;;4990462;28;20171;-77
2022/08/24 01:08:08;;;;;;;11.18;9.95;;;19.40;99.90;;;;;;4959747;28;20510;-77
2022/08/24 01:10:44;;;;;;;11.43;10.10;;;19.30;99.90;;;;;;4989917;28;20053;-77
2022/08/24 01:13:13;;;;;;;12.35;11.00;;;19.30;99.90;;;;;;5008287;28;20061;-77
2022/08/24 01:15:43;;;;;;;11.27;10.02;;;19.30;99.90;;;;;;5006431;28;20045;-76
2022/08/24 01:21:06;;;;;;;12.02;10.70;;;19.30;99.90;;;;;;5007112;28;20124;-77
2022/08/24 01:23:43;;;;;;;12.10;10.90;;;19.20;99.90;;;;;;5006743;28;20122;-77
2022/08/24 01:26:14;;;;;;;16.05;11.45;;;19.20;99.90;;;;;;5006023;28;21141;-77
2022/08/24 01:28:42;;;;;;;11.38;10.18;;;19.20;99.90;;;;;;4993755;28;20085;-76
2022/08/24 01:31:09;;;;;;;11.23;10.05;;;19.20;99.90;;;;;;5005586;28;20045;-76
2022/08/24 01:33:34;;;;;;;11.93;10.82;;;19.10;99.90;;;;;;4992653;28;20475;-76
2022/08/24 01:36:22;;;;;;;12.35;10.95;;;19.10;99.90;;;;;;4959087;28;20045;-76
2022/08/24 01:38:48;;;;;;;12.35;11.05;;;19.10;99.90;;;;;;5007331;28;20057;-77
2022/08/24 01:41:14;;;;;;;12.07;10.82;;;19.10;99.90;;;;;;4992714;28;20057;-77
2022/08/24 01:43:40;;;;;;;13.23;11.23;;;19.10;99.90;;;;;;4973889;28;20407;-76
2022/08/24 01:46:06;;;;;;;11.63;10.52;;;19.00;99.90;;;;;;4989959;28;20041;-77
2022/08/24 01:48:32;;;;;;;12.75;11.43;;;19.00;99.90;;;;;;5006037;28;20042;-76
2022/08/24 01:50:58;;;;;;;11.77;10.57;;;19.00;99.90;;;;;;4989587;28;20045;-76
2022/08/24 01:53:25;;;;;;;11.85;10.65;;;19.00;99.90;;;;;;4989506;28;20057;-77
2022/08/24 01:55:50;;;;;;;12.30;11.10;;;19.00;99.90;;;;;;4972765;28;20049;-77
2022/08/24 01:58:17;;;;;;;13.80;10.60;;;18.90;99.90;;;;;;5006830;28;20050;-77
2022/08/24 02:00:43;;;;;;;11.00;9.90;;;18.90;99.90;;;;;;5023403;28;20049;-77
2022/08/24 02:03:09;;;;;;;11.13;10.02;;;18.90;99.90;;;;;;5006130;28;20045;-76
2022/08/24 02:05:35;;;;;;;12.25;10.95;;;19.00;99.90;;;;;;4975815;28;20040;-76
2022/08/24 02:08:01;;;;;;;12.30;10.68;;;19.00;99.90;;;;;;4989549;28;21720;-77
2022/08/24 02:10:28;;;;;;;12.27;10.15;;;19.00;99.90;;;;;;5006239;28;20045;-77
2022/08/24 02:12:57;;;;;;;12.63;11.00;;;19.00;99.90;;;;;;5007561;28;20087;-76
2022/08/24 02:15:39;;;;;;;11.82;10.70;;;19.00;99.90;;;;;;5007189;28;20065;-77
2022/08/24 02:18:06;;;;;;;12.13;10.63;;;19.00;99.90;;;;;;5006938;28;20046;-76
2022/08/24 02:20:33;;;;;;;10.88;9.82;;;19.00;99.90;;;;;;5007079;28;20056;-77
2022/08/24 02:23:00;;;;;;;11.75;10.63;;;19.00;99.90;;;;;;5003645;28;20099;-76
2022/08/24 02:25:29;;;;;;;14.30;10.27;;;19.10;99.90;;;;;;4991189;28;20049;-77
2022/08/24 02:27:56;;;;;;;11.45;10.25;;;19.10;99.90;;;;;;4990805;28;20049;-77
2022/08/24 02:30:22;;;;;;;12.00;10.80;;;19.10;99.90;;;;;;5007905;28;20140;-77
2022/08/24 02:32:48;;;;;;;11.85;10.52;;;19.10;99.90;;;;;;4988890;28;20639;-77
2022/08/24 02:35:14;;;;;;;11.80;10.52;;;19.20;99.90;;;;;;5007439;28;20041;-76
2022/08/24 02:37:40;;;;;;;13.57;10.60;;;19.20;99.90;;;;;;4991157;28;20119;-76
2022/08/24 02:40:08;;;;;;;12.18;10.98;;;19.20;99.90;;;;;;4988050;28;20084;-77
2022/08/24 02:42:35;;;;;;;13.93;10.95;;;19.20;99.90;;;;;;4987858;28;20051;-77
2022/08/24 02:45:01;;;;;;;12.30;11.02;;;19.20;99.90;;;;;;4992011;28;20487;-77
2022/08/24 02:47:26;;;;;;;13.50;11.18;;;19.20;99.90;;;;;;4974587;28;20483;-77
2022/08/24 02:49:52;;;;;;;11.43;10.32;;;19.20;99.90;;;;;;4973920;28;20081;-76
2022/08/24 02:52:18;;;;;;;12.98;10.52;;;19.20;99.90;;;;;;5004235;28;20053;-77
2022/08/24 02:54:43;;;;;;;13.55;11.32;;;19.20;99.90;;;;;;5006626;28;20047;-77
2022/08/24 02:57:09;;;;;;;13.68;11.70;;;19.20;99.90;;;;;;4972714;28;20053;-76
2022/08/24 02:59:35;;;;;;;13.10;10.93;;;19.10;99.90;;;;;;4991556;28;20475;-78
2022/08/24 03:02:00;;;;;;;12.68;11.20;;;19.10;99.90;;;;;;5004303;28;20060;-77
2022/08/24 03:04:27;;;;;;;13.73;11.38;;;19.10;99.90;;;;;;5006415;28;20107;-77
2022/08/24 03:06:52;;;;;;;13.75;12.45;;;19.10;99.90;;;;;;5003857;28;20048;-76
2022/08/24 03:09:19;;;;;;;13.00;11.70;;;19.10;99.90;;;;;;5006039;28;20128;-77
2022/08/24 03:11:44;;;;;;;13.32;11.93;;;19.20;99.90;;;;;;4987380;28;20073;-76
2022/08/24 03:14:10;;;;;;;13.40;12.02;;;19.10;99.90;;;;;;4974480;28;20049;-77
2022/08/24 03:16:37;;;;;;;13.70;12.30;;;19.10;99.90;;;;;;5003017;28;20033;-77
2022/08/24 03:19:03;;;;;;;14.52;12.60;;;19.10;99.90;;;;;;4959171;28;20077;-77
2022/08/24 03:21:29;;;;;;;14.25;12.48;;;19.10;99.90;;;;;;4990719;28;20123;-77
2022/08/24 03:23:55;;;;;;;13.63;12.20;;;19.10;99.90;;;;;;4990004;28;20057;-78
2022/08/24 03:26:21;;;;;;;13.55;12.25;;;19.10;99.90;;;;;;4988876;28;20052;-77
2022/08/24 03:28:47;;;;;;;15.02;13.23;;;19.10;99.90;;;;;;4990558;28;20052;-77
2022/08/24 03:31:13;;;;;;;16.20;13.45;;;19.10;99.90;;;;;;4992558;28;20046;-77
2022/08/24 03:33:39;;;;;;;16.95;12.27;;;19.00;99.90;;;;;;4998592;28;20043;-76
2022/08/24 03:36:05;;;;;;;15.40;12.18;;;19.00;99.90;;;;;;5015124;28;20029;-77
2022/08/24 03:38:31;;;;;;;13.32;11.93;;;19.00;99.90;;;;;;5000392;28;20129;-77
2022/08/24 03:40:57;;;;;;;13.60;12.20;;;19.00;99.90;;;;;;4989055;28;20164;-77
2022/08/24 03:46:09;;;;;;;15.93;12.15;;;18.90;99.90;;;;;;4993773;28;20686;-77
2022/08/24 03:48:35;;;;;;;14.52;12.52;;;18.90;99.90;;;;;;5009851;28;20037;-78
2022/08/24 03:51:01;;;;;;;13.93;11.95;;;18.90;99.90;;;;;;5014974;28;20049;-76
2022/08/24 03:53:27;;;;;;;14.60;12.85;;;18.90;99.90;;;;;;5011160;28;20140;-77
2022/08/24 03:55:52;;;;;;;13.75;12.35;;;18.90;99.90;;;;;;4973551;28;20053;-77
2022/08/24 03:58:18;;;;;;;13.65;12.00;;;18.90;99.90;;;;;;5019608;28;20053;-77
2022/08/24 04:00:44;;;;;;;14.27;12.77;;;18.90;99.90;;;;;;4985460;28;20475;-77
2022/08/24 04:03:11;;;;;;;13.25;11.95;;;18.90;99.90;;;;;;4987103;28;20053;-77
2022/08/24 04:05:39;;;;;;;13.48;12.18;;;18.80;99.90;;;;;;4988219;28;20040;-77
2022/08/24 04:08:05;;;;;;;14.77;12.77;;;18.90;99.90;;;;;;5003323;28;20042;-77
2022/08/24 04:10:32;;;;;;;14.50;12.85;;;18.90;99.90;;;;;;4988042;28;20084;-77
2022/08/24 04:13:00;;;;;;;14.85;12.98;;;18.80;99.90;;;;;;5002378;28;20053;-77
2022/08/24 04:15:30;;;;;;;15.20;12.77;;;18.80;99.90;;;;;;4969269;28;20656;-78
2022/08/24 04:17:56;;;;;;;12.75;11.32;;;18.80;99.90;;;;;;5003309;28;20598;-78
2022/08/24 04:20:22;;;;;;;15.75;13.02;;;18.80;99.90;;;;;;5003571;28;20062;-77
2022/08/24 04:22:50;;;;;;;16.88;14.02;;;18.90;99.90;;;;;;5008204;28;20054;-78
2022/08/24 04:25:16;;;;;;;16.05;14.50;;;18.90;99.90;;;;;;4991092;28;20077;-77
2022/08/24 04:27:41;;;;;;;16.58;14.68;;;18.90;99.90;;;;;;4991073;28;20174;-77
2022/08/24 04:30:08;;;;;;;18.50;15.45;;;18.90;99.90;;;;;;4972336;28;20594;-77
2022/08/24 04:32:34;;;;;;;17.38;15.52;;;18.90;99.90;;;;;;5006536;28;20187;-76
2022/08/24 04:35:00;;;;;;;17.52;15.15;;;18.90;99.90;;;;;;4985891;28;20068;-77
2022/08/24 04:37:26;;;;;;;14.85;13.40;;;18.90;99.90;;;;;;4987115;28;20585;-77
2022/08/24 04:39:52;;;;;;;16.95;15.20;;;18.90;99.90;;;;;;5023316;28;20576;-77
2022/08/24 04:42:18;;;;;;;17.20;15.40;;;18.80;99.90;;;;;;5009554;28;20053;-77
2022/08/24 04:44:44;;;;;;;15.93;14.18;;;18.80;99.90;;;;;;5008433;28;20133;-78
2022/08/24 04:47:10;;;;;;;14.25;12.90;;;18.90;99.90;;;;;;4993277;28;20041;-77
2022/08/24 04:49:37;;;;;;;17.38;13.68;;;18.80;99.90;;;;;;5026675;28;20046;-77
2022/08/24 04:52:04;;;;;;;16.17;14.25;;;18.80;99.90;;;;;;4995025;28;20128;-78
2022/08/24 04:54:31;;;;;;;15.48;13.88;;;18.80;99.90;;;;;;5011155;28;20091;-77
2022/08/24 04:56:57;;;;;;;15.52;13.70;;;18.80;99.90;;;;;;4978839;28;20087;-77
2022/08/24 04:59:23;;;;;;;15.73;14.18;;;18.80;99.90;;;;;;4978319;28;20489;-77
2022/08/24 05:01:49;;;;;;;15.98;13.57;;;18.80;99.90;;;;;;4993229;28;20055;-77
2022/08/24 05:04:14;;;;;;;18.08;16.17;;;18.90;99.90;;;;;;5006026;28;20382;-78
2022/08/24 05:06:41;;;;;;;16.33;14.68;;;18.90;99.90;;;;;;5006554;28;20057;-78
2022/08/24 05:09:07;;;;;;;19.33;16.15;;;19.00;99.90;;;;;;4990539;28;20080;-77
2022/08/24 05:11:36;;;;;;;17.60;15.85;;;19.00;99.90;;;;;;5008602;28;20081;-78
2022/08/24 05:14:02;;;;;;;16.55;14.95;;;19.00;99.90;;;;;;4993756;28;20050;-78
2022/08/24 05:16:28;;;;;;;17.65;15.75;;;19.00;99.90;;;;;;5005830;28;20070;-77
2022/08/24 05:18:55;;;;;;;19.90;15.98;;;19.00;99.90;;;;;;4994233;28;20077;-76
2022/08/24 05:21:23;;;;;;;16.88;14.65;;;19.00;99.90;;;;;;5011396;28;20045;-76
2022/08/24 05:23:49;;;;;;;19.35;16.55;;;19.00;99.90;;;;;;5010766;28;20056;-77
2022/08/24 05:26:23;;;;;;;17.58;15.18;;;19.00;99.90;;;;;;4990094;28;20049;-76
2022/08/24 05:28:49;;;;;;;18.55;16.42;;;19.00;99.90;;;;;;4993902;28;20391;-77
2022/08/24 05:31:22;;;;;;;18.60;16.80;;;19.10;99.90;;;;;;5009164;28;20064;-79
2022/08/24 05:33:49;;;;;;;18.52;16.05;;;19.10;99.90;;;;;;5006627;28;20046;-78
2022/08/24 05:36:18;;;;;;;17.08;15.27;;;19.10;99.90;;;;;;4996954;28;20053;-77
2022/08/24 05:38:43;;;;;;;18.35;16.45;;;19.20;99.90;;;;;;4992329;28;20045;-78
2022/08/24 05:41:09;;;;;;;17.10;14.73;;;19.20;99.90;;;;;;5010341;28;20104;-78
2022/08/24 05:43:35;;;;;;;17.63;15.82;;;19.20;99.90;;;;;;4983216;28;20087;-78
2022/08/24 05:46:01;;;;;;;17.50;15.20;;;19.30;99.90;;;;;;4974467;28;20076;-81
2022/08/24 05:48:27;;;;;;;14.70;13.20;;;19.30;99.90;;;;;;5007200;28;20073;-80
2022/08/24 05:50:57;;;;;;;13.40;11.82;;;19.40;99.90;;;;;;4987197;28;20129;-78
2022/08/24 05:53:23;;;;;;;18.48;16.50;;;19.40;99.90;;;;;;5012627;28;20045;-79
2022/08/24 05:55:49;;;;;;;16.67;14.95;;;19.40;99.90;;;;;;5011644;28;20049;-79
2022/08/24 05:58:15;;;;;;;18.83;16.60;;;19.50;99.90;;;;;;4979935;28;20056;-79
2022/08/24 06:00:44;;;;;;;17.48;15.68;;;19.60;99.90;;;;;;4978644;28;20218;-80
2022/08/24 06:03:11;;;;;;;16.40;14.60;;;19.60;99.90;;;;;;5011770;28;20049;-80
2022/08/24 06:05:46;;;;;;;14.60;12.18;;;19.70;99.90;;;;;;4993181;28;20418;-79
2022/08/24 06:08:12;;;;;;;18.33;16.52;;;19.70;99.90;;;;;;4978988;28;20152;-79
2022/08/24 06:10:43;;;;;;;18.48;16.58;;;19.70;99.90;;;;;;4996419;28;20078;-79
2022/08/24 06:13:10;;;;;;;15.48;13.73;;;19.80;99.90;;;;;;5012073;28;20053;-80
2022/08/24 06:15:36;;;;;;;14.23;12.73;;;19.90;99.90;;;;;;4979371;28;20513;-79
2022/08/24 06:18:04;;;;;;;16.58;14.80;;;19.90;99.90;;;;;;5012982;28;20077;-78
2022/08/24 06:20:31;;;;;;;19.02;16.92;;;20.00;99.90;;;;;;4996970;28;20064;-79
2022/08/24 06:22:57;;;;;;;16.88;15.07;;;20.10;99.90;;;;;;5013502;28;20056;-79
2022/08/24 06:28:06;;;;;;;15.65;13.68;;;20.20;99.90;;;;;;4999118;28;20132;-79
2022/08/24 06:30:33;;;;;;;15.77;14.20;;;20.30;99.90;;;;;;5005454;28;20053;-79
2022/08/24 06:33:01;;;;;;;13.30;11.90;;;20.40;99.90;;;;;;5037160;28;20057;-82
2022/08/24 06:35:27;;;;;;;11.73;10.52;;;20.50;99.90;;;;;;5024627;28;20080;-81
2022/08/24 06:37:53;;;;;;;11.65;9.73;;;20.60;99.90;;;;;;4979034;28;20155;-83
2022/08/24 06:40:19;;;;;;;11.20;10.00;;;20.70;99.90;;;;;;4981141;28;20080;-82
2022/08/24 06:42:45;;;;;;;9.93;8.93;;;20.80;99.90;;;;;;5000439;28;20056;-83
2022/08/24 06:45:11;;;;;;;9.75;7.85;;;20.80;99.90;;;;;;4995162;28;20033;-83
2022/08/24 06:47:37;;;;;;;10.13;8.50;;;21.00;99.90;;;;;;4996467;28;20066;-81
2022/08/24 06:50:05;;;;;;;9.90;7.57;;;21.10;99.90;;;;;;5018094;28;20120;-82
2022/08/24 06:52:33;;;;;;;7.80;6.82;;;21.30;99.90;;;;;;4993827;28;20463;-82
2022/08/24 06:54:58;;;;;;;7.53;6.18;;;21.40;99.90;;;;;;5013791;28;20072;-82
2022/08/24 06:57:25;;;;;;;7.43;6.15;;;21.60;99.90;;;;;;4991813;28;20518;-83
2022/08/24 06:59:52;;;;;;;6.50;5.55;;;21.70;99.90;;;;;;4994012;28;20064;-84
2022/08/24 07:02:18;;;;;;;7.45;5.30;;;21.90;99.90;;;;;;5005606;28;20108;-84
2022/08/24 07:04:44;;;;;;;6.03;5.15;;;22.00;99.90;;;;;;4995988;28;20479;-85
2022/08/24 07:07:11;;;;;;;6.07;4.72;;;22.20;99.90;;;;;;5010239;28;20053;-84
2022/08/24 07:09:37;;;;;;;7.43;3.13;;;22.30;99.90;;;;;;4998065;28;20057;-84
2022/08/24 07:12:03;;;;;;;6.75;3.60;;;22.40;99.90;;;;;;5014218;28;20062;-84
2022/08/24 07:14:30;;;;;;;4.07;3.13;;;22.50;99.90;;;;;;5003469;28;20366;-84
2022/08/24 07:16:56;;;;;;;6.38;3.05;;;22.50;99.90;;;;;;5015392;28;20056;-85
2022/08/24 07:19:22;;;;;;;5.28;3.13;;;22.70;99.90;;;;;;4995783;28;20089;-83
2022/08/24 07:21:48;;;;;;;3.85;2.80;;;22.80;99.90;;;;;;4995011;28;20049;-83
2022/08/24 07:24:14;;;;;;;3.03;2.50;;;23.00;99.90;;;;;;4976607;28;20593;-83
2022/08/24 07:26:40;;;;;;;3.60;2.88;;;23.10;99.90;;;;;;4978138;28;20063;-80
2022/08/24 07:29:13;;;;;;;4.05;2.65;;;23.30;99.90;;;;;;4978738;28;20049;-79
2022/08/24 07:31:39;;;;;;;3.80;2.40;;;23.50;99.90;;;;;;4998131;28;20088;-79
2022/08/24 07:34:07;;;;;;;3.15;2.20;;;23.70;99.90;;;;;;5000713;28;20068;-79
2022/08/24 07:36:34;;;;;;;2.60;1.90;;;23.80;99.90;;;;;;5016308;28;20052;-79
2022/08/24 07:38:59;;;;;;;2.92;1.90;;;24.00;99.90;;;;;;5025270;28;20191;-79
2022/08/24 07:41:26;;;;;;;3.63;1.98;;;24.20;99.90;;;;;;4974957;28;20185;-78
2022/08/24 07:43:53;;;;;;;3.60;2.08;;;24.30;99.90;;;;;;5010695;28;20060;-79
2022/08/24 07:46:20;;;;;;;3.17;2.35;;;24.50;99.90;;;;;;5013240;28;20052;-78
2022/08/24 07:48:46;;;;;;;5.38;2.50;;;24.70;99.90;;;;;;4997200;28;20041;-79
2022/08/24 07:51:14;;;;;;;4.45;2.30;;;24.80;99.90;;;;;;5011870;28;20053;-81
2022/08/24 07:53:41;;;;;;;3.50;2.20;;;25.00;99.90;;;;;;4979167;28;20060;-80
2022/08/24 07:56:07;;;;;;;2.75;2.00;;;25.10;99.90;;;;;;4994135;28;20037;-80
2022/08/24 07:58:34;;;;;;;4.30;2.40;;;25.30;99.90;;;;;;5009694;28;20479;-78
2022/08/24 08:01:00;;;;;;;3.90;2.47;;;25.40;99.90;;;;;;4977935;28;20053;-79
2022/08/24 08:03:28;;;;;;;2.78;2.20;;;25.50;99.90;;;;;;4995272;28;20092;-79
2022/08/24 08:05:58;;;;;;;4.90;3.00;;;25.70;99.90;;;;;;4978866;28;20075;-80
2022/08/24 08:08:24;;;;;;;2.45;1.92;;;25.70;99.90;;;;;;5011538;28;20045;-79
2022/08/24 08:10:50;;;;;;;3.03;2.10;;;25.90;99.90;;;;;;4996126;28;20052;-79
2022/08/24 08:13:17;;;;;;;2.60;1.90;;;26.10;99.90;;;;;;4996792;28;20053;-79
2022/08/24 08:15:43;;;;;;;2.75;2.22;;;26.20;99.90;;;;;;4968842;28;20171;-79
2022/08/24 08:18:09;;;;;;;2.95;2.05;;;26.30;99.90;;;;;;4989729;28;20096;-84
2022/08/24 08:20:38;;;;;;;2.55;1.90;;;26.30;99.90;;;;;;5013940;28;20041;-83
2022/08/24 08:25:51;;;;;;;2.43;1.77;;;26.50;99.90;;;;;;5016644;28;20053;-84
2022/08/24 08:28:18;;;;;;;3.33;2.08;;;26.80;99.90;;;;;;4981806;28;20081;-81
2022/08/24 08:30:45;;;;;;;3.17;1.70;;;27.00;99.90;;;;;;4999860;28;20057;-82
2022/08/24 08:33:11;;;;;;;2.72;2.05;;;27.10;99.90;;;;;;4997428;28;20132;-81
2022/08/24 08:35:38;;;;;;;2.63;2.10;;;27.10;99.90;;;;;;5014272;28;20103;-82
2022/08/24 08:38:05;;;;;;;2.90;2.15;;;27.10;99.90;;;;;;4982024;28;20127;-83
2022/08/24 08:40:59;;;;;;;2.65;1.90;;;27.10;99.90;;;;;;5030959;28;20037;-80
2022/08/24 08:43:40;;;;;;;2.67;1.90;;;27.20;99.90;;;;;;4998348;28;20399;-81
2022/08/24 08:46:27;;;;;;;3.25;1.75;;;27.40;99.90;;;;;;5013850;28;20506;-82
2022/08/24 08:49:01;;;;;;;4.53;1.80;;;27.80;99.90;;;;;;5011184;28;20049;-82
2022/08/24 08:51:39;;;;;;;2.15;1.67;;;27.70;99.90;;;;;;5014287;28;20084;-81
2022/08/24 08:54:26;;;;;;;2.17;1.38;;;27.90;99.90;;;;;;5012574;28;20399;-81
2022/08/24 08:57:26;;;;;;;2.60;1.65;;;28.10;99.90;;;;;;5013082;28;20126;-81
2022/08/24 09:00:21;;;;;;;1.75;1.38;;;28.30;99.90;;;;;;5013958;28;20084;-81
2022/08/24 09:03:04;;;;;;;3.53;1.80;;;28.00;99.90;;;;;;4996367;28;20049;-81
2022/08/24 09:06:08;;;;;;;3.05;1.98;;;28.60;99.90;;;;;;4997957;28;20110;-80
2022/08/24 09:09:00;;;;;;;2.60;1.50;;;28.80;99.90;;;;;;5012246;28;20049;-81
2022/08/24 09:11:34;;;;;;;4.95;1.67;;;28.90;99.90;;;;;;5014288;28;20060;-81
2022/08/24 09:14:42;;;;;;;2.40;1.80;;;28.90;99.90;;;;;;5013149;28;20050;-80
2022/08/24 09:17:16;;;;;;;2.58;1.90;;;29.00;99.90;;;;;;5013960;28;20473;-84
2022/08/24 09:20:05;;;;;;;2.93;2.27;;;29.20;99.90;;;;;;5014502;28;20091;-85
2022/08/24 09:22:38;;;;;;;3.63;2.50;;;28.80;99.90;;;;;;5014591;28;20507;-84
2022/08/24 09:25:31;;;;;;;4.22;2.40;;;29.20;99.90;;;;;;4998622;28;20048;-83
2022/08/24 09:28:25;;;;;;;3.60;2.60;;;29.20;99.90;;;;;;5021392;28;20085;-83
2022/08/24 09:31:16;;;;;;;5.10;3.00;;;29.20;99.90;;;;;;5033585;28;20053;-82
2022/08/24 09:33:44;;;;;;;3.60;2.90;;;29.20;99.90;;;;;;5015531;28;20053;-83
2022/08/24 09:36:46;;;;;;;4.55;2.75;;;29.20;99.90;;;;;;4997477;28;20045;-83
2022/08/24 09:39:49;;;;;;;4.05;3.08;;;29.20;99.90;;;;;;5014274;28;20038;-83
2022/08/24 09:42:30;;;;;;;3.78;3.00;;;29.30;99.90;;;;;;5004753;28;20037;-84
2022/08/24 09:45:44;;;;;;;3.60;2.95;;;29.40;99.90;;;;;;5031970;28;20049;-83
2022/08/24 09:48:19;;;;;;;3.65;2.75;;;29.30;99.90;;;;;;4920676;28;20036;-83
2022/08/24 09:51:22;;;;;;;4.10;3.35;;;29.50;99.90;;;;;;4929772;28;20058;-83
2022/08/24 09:54:19;;;;;;;4.00;2.78;;;29.50;99.90;;;;;;4986368;28;20141;-84
2022/08/24 09:57:04;;;;;;;4.85;3.92;;;29.50;99.90;;;;;;5012274;28;20049;-83
2022/08/24 10:00:15;;;;;;;3.88;3.47;;;29.50;99.90;;;;;;4995467;28;20135;-84
2022/08/24 10:02:56;;;;;;;3.67;3.05;;;29.50;99.90;;;;;;4996919;28;20048;-83
2022/08/24 10:05:49;;;;;;;4.85;3.78;;;29.50;99.90;;;;;;4997081;28;20049;-81
2022/08/24 10:08:43;;;;;;;4.80;4.03;;;29.40;99.90;;;;;;5012724;28;20457;-82
2022/08/24 10:11:29;;;;;;;5.57;3.28;;;29.50;99.90;;;;;;5012953;28;20139;-83
2022/08/24 10:14:02;;;;;;;5.82;3.30;;;29.60;99.90;;;;;;5012817;28;20060;-82
2022/08/24 10:16:51;;;;;;;4.15;3.55;;;29.60;99.90;;;;;;5012433;28;20167;-83
2022/08/24 10:19:36;;;;;;;5.57;4.00;;;29.80;99.90;;;;;;5012097;28;20060;-82
2022/08/24 10:22:22;;;;;;;6.95;3.55;;;30.00;99.90;;;;;;5014164;28;20049;-83
2022/08/24 10:24:52;;;;;;;4.68;3.90;;;30.10;99.90;;;;;;5012653;28;20395;-83
2022/08/24 10:27:18;;;;;;;5.65;4.07;;;29.90;99.90;;;;;;5010132;28;20172;-81
2022/08/24 10:30:20;;;;;;;5.47;3.70;;;30.10;99.90;;;;;;5013533;28;20128;-83
2022/08/24 10:33:04;;;;;;;4.50;3.80;;;30.30;99.90;;;;;;4989502;28;20045;-81
2022/08/24 10:35:43;;;;;;;6.87;3.77;;;30.30;99.90;;;;;;4995146;28;20565;-82
2022/08/24 10:42:01;;;;;;;6.18;4.18;;;30.50;99.90;;;;;;5029148;28;20144;-82
2022/08/24 10:44:46;;;;;;;7.93;4.20;;;30.40;99.90;;;;;;5011067;28;20041;-82
2022/08/24 10:47:29;;;;;;;4.13;2.70;;;30.40;99.90;;;;;;5009886;28;20056;-79
2022/08/24 10:50:07;;;;;;;5.35;3.97;;;30.60;99.90;;;;;;5010985;28;20042;-77
2022/08/24 10:52:52;;;;;;;4.28;3.60;;;30.70;99.90;;;;;;5011909;28;20046;-79
2022/08/24 10:55:23;;;;;;;5.20;2.90;;;30.80;99.90;;;;;;5009934;28;20052;-78
2022/08/24 10:58:09;;;;;;;3.90;3.50;;;31.00;99.90;;;;;;4993960;28;20100;-79
2022/08/24 11:00:35;;;;;;;5.60;3.17;;;31.10;99.90;;;;;;5011124;28;20088;-78
2022/08/24 11:03:15;;;;;;;4.85;3.42;;;31.20;99.90;;;;;;5011278;28;20156;-79
2022/08/24 11:05:47;;;;;;;4.55;3.00;;;31.20;99.90;;;;;;4989026;28;20072;-78
2022/08/24 11:08:28;;;;;;;4.10;3.08;;;31.30;99.90;;;;;;5005840;28;20118;-79
2022/08/24 11:11:23;;;;;;;4.72;3.45;;;31.50;99.90;;;;;;5011573;28;20107;-80
2022/08/24 11:13:59;;;;;;;4.70;3.22;;;31.60;99.90;;;;;;5007990;28;20057;-80
2022/08/24 11:16:46;;;;;;;4.05;3.35;;;31.60;99.90;;;;;;5012232;28;20046;-81
2022/08/24 11:19:33;;;;;;;6.03;3.90;;;31.40;99.90;;;;;;5007460;28;20056;-79
2022/08/24 11:22:23;;;;;;;7.25;4.28;;;31.30;99.90;;;;;;5011427;28;20128;-80
2022/08/24 11:24:53;;;;;;;6.18;3.50;;;31.30;99.90;;;;;;4995919;28;20713;-80
2022/08/24 11:27:27;;;;;;;4.60;3.65;;;31.50;99.90;;;;;;5012349;28;20061;-80
2022/08/24 11:29:56;;;;;;;5.60;3.67;;;31.60;99.90;;;;;;4994986;28;20053;-81
2022/08/24 11:32:40;;;;;;;4.10;3.30;;;31.90;99.90;;;;;;4995031;28;20049;-80
2022/08/24 11:35:25;;;;;;;4.78;3.92;;;31.90;99.80;;;;;;4992275;28;20073;-81
2022/08/24 11:37:55;;;;;;;5.07;3.67;;;32.10;99.90;;;;;;5010652;28;20067;-79
2022/08/24 11:40:27;;;;;;;5.35;4.60;;;32.30;99.90;;;;;;5012524;28;20065;-79
2022/08/24 11:43:12;;;;;;;4.68;3.67;;;32.30;99.60;;;;;;5011905;28;20041;-80
2022/08/24 11:46:17;;;;;;;5.67;4.60;;;32.50;99.20;;;;;;5011146;28;20045;-79
2022/08/24 11:48:49;;;;;;;4.88;3.97;;;32.60;98.90;;;;;;5010675;28;20292;-80
2022/08/24 11:51:30;;;;;;;8.90;4.03;;;32.70;99.10;;;;;;5008673;28;20068;-79
2022/08/24 11:54:07;;;;;;;5.30;4.03;;;32.70;98.70;;;;;;5011138;28;20399;-80
2022/08/24 11:56:58;;;;;;;4.93;4.43;;;32.70;98.70;;;;;;4991379;28;20057;-81
2022/08/24 11:59:47;;;;;;;5.00;4.18;;;32.70;98.50;;;;;;5010731;28;20054;-81
2022/08/24 12:02:27;;;;;;;5.32;4.25;;;32.70;98.30;;;;;;5010601;28;20045;-81
2022/08/24 12:05:19;;;;;;;4.28;3.70;;;32.80;98.50;;;;;;4996486;28;20414;-80
2022/08/24 12:08:12;;;;;;;5.47;4.28;;;32.80;97.80;;;;;;4995204;28;20053;-81
2022/08/24 12:10:50;;;;;;;6.28;3.85;;;32.90;98.10;;;;;;5011765;28;20045;-80
2022/08/24 12:13:51;;;;;;;5.63;4.78;;;32.90;98.00;;;;;;5011292;28;20076;-79
2022/08/24 12:16:35;;;;;;;5.78;4.72;;;32.60;97.80;;;;;;4986913;28;20054;-81
2022/08/24 12:19:24;;;;;;;8.45;4.63;;;32.70;98.40;;;;;;5008014;28;20178;-79
2022/08/24 12:21:56;;;;;;;5.57;4.25;;;32.80;98.20;;;;;;5012995;28;20052;-79
2022/08/24 12:24:36;;;;;;;6.97;5.38;;;32.40;98.50;;;;;;4996482;28;20554;-79
2022/08/24 12:27:24;;;;;;;6.97;4.90;;;32.10;98.50;;;;;;5016996;28;20056;-78
2022/08/24 12:30:19;;;;;;;10.68;4.85;;;32.20;98.80;;;;;;5025439;28;20105;-79
2022/08/24 12:32:52;;;;;;;7.07;5.25;;;32.20;98.90;;;;;;4993603;28;20140;-80
2022/08/24 12:35:28;;;;;;;7.15;5.45;;;32.40;98.50;;;;;;5011049;28;20121;-79
2022/08/24 12:38:25;;;;;;;5.93;4.63;;;32.50;98.40;;;;;;4993379;28;20148;-79
2022/08/24 12:41:06;;;;;;;5.93;4.32;;;32.70;98.60;;;;;;4983160;28;20054;-79
2022/08/24 12:43:42;;;;;;;4.47;3.60;;;32.80;98.10;;;;;;5010329;28;20103;-80
2022/08/24 12:46:11;;;;;;;4.90;4.15;;;32.70;98.10;;;;;;5006893;28;20042;-78
2022/08/24 12:48:53;;;;;;;5.63;3.75;;;32.60;98.30;;;;;;5010509;28;20041;-78
2022/08/24 12:52:08;;;;;;;5.10;4.35;;;32.70;98.40;;;;;;4993949;28;20061;-80
2022/08/24 12:54:56;;;;;;;5.30;4.53;;;32.90;98.10;;;;;;4964517;28;20053;-79
2022/08/24 12:57:47;;;;;;;5.82;5.22;;;32.80;97.20;;;;;;5007699;28;20053;-80
2022/08/24 13:00:27;;;;;;;5.57;4.18;;;32.50;97.30;;;;;;5026577;28;20053;-79
2022/08/24 13:03:00;;;;;;;5.07;4.53;;;32.50;97.80;;;;;;5013626;28;20048;-80
2022/08/24 13:05:39;;;;;;;5.13;3.97;;;32.40;97.90;;;;;;4997461;28;20046;-80
2022/08/24 13:08:37;;;;;;;7.88;5.30;;;32.40;97.70;;;;;;4994563;28;20049;-81
2022/08/24 13:11:15;;;;;;;6.28;4.63;;;32.20;98.20;;;;;;4997167;28;20057;-81
2022/08/24 13:13:53;;;;;;;6.22;4.18;;;32.50;98.20;;;;;;5014041;28;20128;-81
2022/08/24 13:16:50;;;;;;;6.38;5.78;;;32.60;97.80;;;;;;5015916;28;20110;-81
2022/08/24 13:19:22;;;;;;;6.10;5.50;;;32.50;97.60;;;;;;5015083;28;20045;-81
2022/08/24 13:21:57;;;;;;;6.55;3.88;;;32.30;97.90;;;;;;5014102;28;20037;-82